createdAt,value
2022-10-07T00:00:09.166Z,101820.34
2022-10-07T00:02:10.688Z,101816.00
2022-10-07T00:04:12.616Z,101817.66
2022-10-07T00:06:16.239Z,101811.47
2022-10-07T00:08:17.793Z,101812.84
2022-10-07T00:10:19.343Z,101807.69
2022-10-07T00:12:24.384Z,101805.25
2022-10-07T00:14:26.144Z,101806.88
2022-10-07T00:16:29.948Z,101809.59
2022-10-07T00:18:31.465Z,101808.25
2022-10-07T00:20:37.177Z,101807.16
2022-10-07T00:22:38.637Z,101803.13
2022-10-07T00:24:40.107Z,101813.78
2022-10-07T00:26:41.837Z,101808.88
2022-10-07T00:28:45.075Z,101805.91
2022-10-07T00:30:46.616Z,101795.03
2022-10-07T00:32:48.141Z,101794.97
2022-10-07T00:34:49.675Z,101797.44
2022-10-07T00:36:51.304Z,101792.78
2022-10-07T00:38:54.696Z,101793.09
2022-10-07T00:40:56.178Z,101796.59
2022-10-07T00:42:57.659Z,101786.03
2022-10-07T00:45:00.643Z,101778.66
2022-10-07T00:47:04.868Z,101768.88
2022-10-07T00:49:09.522Z,101772.44
2022-10-07T00:51:11.457Z,101764.28
2022-10-07T00:53:13.072Z,101764.22
2022-10-07T00:55:17.720Z,101752.53
2022-10-07T00:57:20.281Z,101758.53
2022-10-07T00:59:21.881Z,101759.94
2022-10-07T01:01:25.847Z,101747.09
2022-10-07T01:03:28.118Z,101746.88
2022-10-07T01:05:29.847Z,101745.81
2022-10-07T01:07:32.675Z,101745.31
2022-10-07T01:09:34.253Z,101752.41
2022-10-07T01:11:49.532Z,101754.88
2022-10-07T01:14:03.112Z,101749.19
2022-10-07T01:16:12.304Z,101741.09
2022-10-07T01:18:21.895Z,101745.41
2022-10-07T01:20:34.020Z,101742.19
2022-10-07T01:22:47.172Z,101739.50
2022-10-07T01:25:03.060Z,101738.69
2022-10-07T01:27:13.936Z,101736.22
2022-10-07T01:29:19.402Z,101739.50
2022-10-07T01:31:27.847Z,101743.06
2022-10-07T01:33:32.704Z,101739.03
2022-10-07T01:35:39.260Z,101734.91
2022-10-07T01:37:44.279Z,101726.78
2022-10-07T01:39:50.699Z,101730.91
2022-10-07T01:41:53.378Z,101731.47
2022-10-07T01:43:59.348Z,101725.50
2022-10-07T01:46:02.423Z,101721.72
2022-10-07T01:48:04.019Z,101718.19
2022-10-07T01:50:11.625Z,101720.06
2022-10-07T01:52:26.538Z,101715.19
2022-10-07T01:54:38.883Z,101713.56
2022-10-07T01:56:58.613Z,101706.25
2022-10-07T01:59:24.443Z,101713.06
2022-10-07T02:01:33.095Z,101707.34
2022-10-07T02:03:57.280Z,101705.22
2022-10-07T02:06:10.261Z,101707.94
2022-10-07T02:08:22.481Z,101705.72
2022-10-07T02:10:29.090Z,101704.38
2022-10-07T02:12:37.721Z,101706.00
2022-10-07T02:14:43.388Z,101707.94
2022-10-07T02:16:47.657Z,101699.50
2022-10-07T02:18:51.893Z,101700.09
2022-10-07T02:20:55.738Z,101692.47
2022-10-07T02:23:01.288Z,101691.16
2022-10-07T02:25:03.386Z,101691.69
2022-10-07T02:27:08.923Z,101689.00
2022-10-07T02:29:14.360Z,101687.34
2022-10-07T02:31:20.597Z,101685.19
2022-10-07T02:33:24.992Z,101677.34
2022-10-07T02:35:31.352Z,101675.72
2022-10-07T02:37:37.779Z,101671.41
2022-10-07T02:39:39.297Z,101664.91
2022-10-07T02:41:50.501Z,101659.00
2022-10-07T02:43:57.305Z,101660.63
2022-10-07T02:46:05.571Z,101659.78
2022-10-07T02:48:15.952Z,101670.09
2022-10-07T02:50:21.578Z,101667.09
2022-10-07T02:52:25.010Z,101665.72
2022-10-07T02:54:31.575Z,101660.00
2022-10-07T02:56:35.837Z,101660.81
2022-10-07T02:58:39.936Z,101661.94
2022-10-07T03:00:47.283Z,101662.72
2022-10-07T03:02:51.759Z,101655.63
2022-10-07T03:04:57.200Z,101657.56
2022-10-07T03:06:58.933Z,101657.78
2022-10-07T03:09:00.626Z,101648.31
2022-10-07T03:11:02.139Z,101649.41
2022-10-07T03:13:04.433Z,101650.19
2022-10-07T03:15:06.728Z,101651.03
2022-10-07T03:17:08.218Z,101654.03
2022-10-07T03:19:09.763Z,101652.13
2022-10-07T03:21:12.801Z,101646.44
2022-10-07T03:23:14.258Z,101653.75
2022-10-07T03:25:16.113Z,101645.31
2022-10-07T03:27:17.691Z,101645.91
2022-10-07T03:29:19.344Z,101648.31
2022-10-07T03:31:23.062Z,101640.47
2022-10-07T03:33:24.675Z,101636.97
2022-10-07T03:35:26.178Z,101638.63
2022-10-07T03:37:30.038Z,101632.88
2022-10-07T03:39:31.517Z,101631.56
2022-10-07T03:41:33.025Z,101628.34
2022-10-07T03:43:34.571Z,101625.91
2022-10-07T03:45:43.191Z,101623.75
2022-10-07T03:47:45.007Z,101621.84
2022-10-07T03:49:52.475Z,101614.25
2022-10-07T03:51:54.077Z,101609.34
2022-10-07T03:53:57.789Z,101613.66
2022-10-07T03:55:59.311Z,101623.44
2022-10-07T03:58:00.851Z,101618.59
2022-10-07T04:00:02.484Z,101620.50
2022-10-07T04:02:07.125Z,101618.31
2022-10-07T04:04:08.699Z,101622.38
2022-10-07T04:06:10.149Z,101616.16
2022-10-07T04:08:12.167Z,101618.00
2022-10-07T04:10:17.109Z,101611.25
2022-10-07T04:12:18.587Z,101613.41
2022-10-07T04:14:20.145Z,101617.47
2022-10-07T04:16:21.963Z,101610.16
2022-10-07T04:18:24.233Z,101608.81
2022-10-07T04:20:26.512Z,101607.19
2022-10-07T04:23:05.418Z,101613.97
2022-10-07T04:25:08.331Z,101606.13
2022-10-07T04:27:23.477Z,101606.38
2022-10-07T04:29:38.138Z,101607.47
2022-10-07T04:31:40.642Z,101610.75
2022-10-07T04:33:42.422Z,101612.63
2022-10-07T04:35:43.961Z,101606.41
2022-10-07T04:37:48.047Z,101596.59
2022-10-07T04:40:00.640Z,101596.44
2022-10-07T04:42:02.676Z,101596.19
2022-10-07T04:44:05.521Z,101594.59
2022-10-07T04:46:08.602Z,101593.25
2022-10-07T04:48:10.184Z,101586.72
2022-10-07T04:50:11.722Z,101587.25
2022-10-07T04:52:13.234Z,101586.19
2022-10-07T04:54:14.749Z,101594.84
2022-10-07T04:56:16.296Z,101586.50
2022-10-07T04:58:19.245Z,101588.63
2022-10-07T05:00:22.080Z,101585.94
2022-10-07T05:02:23.860Z,101587.28
2022-10-07T05:04:25.433Z,101585.41
2022-10-07T05:06:27.015Z,101575.91
2022-10-07T05:08:28.619Z,101577.81
2022-10-07T05:10:30.178Z,101573.22
2022-10-07T05:12:31.770Z,101579.44
2022-10-07T05:14:33.475Z,101576.47
2022-10-07T05:16:36.378Z,101561.00
2022-10-07T05:18:38.072Z,101564.81
2022-10-07T05:20:39.694Z,101575.41
2022-10-07T05:22:41.415Z,101560.47
2022-10-07T05:24:42.911Z,101567.22
2022-10-07T05:26:44.442Z,101565.59
2022-10-07T05:28:46.227Z,101565.34
2022-10-07T05:30:47.750Z,101563.75
2022-10-07T05:32:51.278Z,101562.66
2022-10-07T05:34:52.780Z,101555.09
2022-10-07T05:36:54.244Z,101551.53
2022-10-07T05:38:56.324Z,101563.22
2022-10-07T05:40:58.841Z,101558.84
2022-10-07T05:43:00.362Z,101556.13
2022-10-07T05:45:01.996Z,101560.47
2022-10-07T05:47:03.509Z,101559.94
2022-10-07T05:49:06.326Z,101557.75
2022-10-07T05:51:08.597Z,101561.00
2022-10-07T05:53:10.110Z,101551.78
2022-10-07T05:55:12.054Z,101549.59
2022-10-07T05:57:13.628Z,101546.63
2022-10-07T05:59:15.250Z,101543.09
2022-10-07T06:01:19.010Z,101545.53
2022-10-07T06:03:21.375Z,101553.69
2022-10-07T06:05:24.746Z,101555.56
2022-10-07T06:07:29.340Z,101558.53
2022-10-07T06:09:31.118Z,101547.97
2022-10-07T06:11:32.751Z,101551.19
2022-10-07T06:13:35.202Z,101554.97
2022-10-07T06:15:37.224Z,101547.13
2022-10-07T06:17:42.294Z,101543.88
2022-10-07T06:19:44.073Z,101554.50
2022-10-07T06:21:46.922Z,101546.88
2022-10-07T06:23:50.088Z,101552.31
2022-10-07T06:25:54.183Z,101549.06
2022-10-07T06:27:56.369Z,101560.69
2022-10-07T06:29:58.095Z,101554.44
2022-10-07T06:32:00.064Z,101550.91
2022-10-07T06:34:01.955Z,101557.13
2022-10-07T06:36:04.679Z,101557.38
2022-10-07T06:38:07.824Z,101560.06
2022-10-07T06:40:10.440Z,101553.03
2022-10-07T06:42:11.986Z,101557.09
2022-10-07T06:44:13.675Z,101556.53
2022-10-07T06:46:17.377Z,101558.97
2022-10-07T06:48:19.254Z,101557.88
2022-10-07T06:50:20.875Z,101557.84
2022-10-07T06:52:22.569Z,101558.66
2022-10-07T06:54:25.548Z,101563.56
2022-10-07T06:56:27.218Z,101553.78
2022-10-07T06:58:29.102Z,101558.34
2022-10-07T07:00:32.835Z,101552.63
2022-10-07T07:02:34.533Z,101561.63
2022-10-07T07:04:36.126Z,101560.81
2022-10-07T07:06:38.362Z,101555.88
2022-10-07T07:08:40.123Z,101557.25
2022-10-07T07:10:44.603Z,101560.75
2022-10-07T07:12:48.795Z,101555.78
2022-10-07T07:14:50.790Z,101556.56
2022-10-07T07:16:52.440Z,101559.72
2022-10-07T07:18:55.084Z,101557.50
2022-10-07T07:21:02.330Z,101560.41
2022-10-07T07:23:04.958Z,101557.09
2022-10-07T07:25:07.572Z,101555.44
2022-10-07T07:27:10.493Z,101545.28
2022-10-07T07:29:13.004Z,101543.81
2022-10-07T07:31:14.752Z,101546.34
2022-10-07T07:33:16.288Z,101549.47
2022-10-07T07:35:17.865Z,101543.38
2022-10-07T07:37:19.627Z,101545.16
2022-10-07T07:39:21.468Z,101551.31
2022-10-07T07:41:26.028Z,101553.44
2022-10-07T07:43:29.201Z,101547.38
2022-10-07T07:45:30.928Z,101547.84
2022-10-07T07:47:32.472Z,101549.34
2022-10-07T07:49:34.325Z,101544.09
2022-10-07T07:51:36.858Z,101533.31
2022-10-07T07:53:38.842Z,101532.88
2022-10-07T07:55:40.383Z,101529.66
2022-10-07T07:57:41.970Z,101531.72
2022-10-07T07:59:47.638Z,101528.34
2022-10-07T08:01:49.528Z,101534.75
2022-10-07T08:03:51.707Z,101533.97
2022-10-07T08:05:53.780Z,101536.53
2022-10-07T08:07:55.279Z,101540.19
2022-10-07T08:09:56.843Z,101532.16
2022-10-07T08:12:02.810Z,101525.72
2022-10-07T08:14:04.309Z,101521.50
2022-10-07T08:16:07.554Z,101525.22
2022-10-07T08:18:09.274Z,101534.75
2022-10-07T08:20:10.833Z,101529.22
2022-10-07T08:22:12.427Z,101526.31
2022-10-07T08:24:13.947Z,101530.75
2022-10-07T08:26:15.943Z,101527.84
2022-10-07T08:28:17.834Z,101525.34
2022-10-07T08:30:19.381Z,101528.56
2022-10-07T08:32:22.301Z,101526.78
2022-10-07T08:34:23.997Z,101521.63
2022-10-07T08:36:27.791Z,101518.22
2022-10-07T08:38:30.499Z,101521.53
2022-10-07T08:40:32.118Z,101508.91
2022-10-07T08:42:37.312Z,101518.59
2022-10-07T08:44:41.370Z,101509.81
2022-10-07T08:46:51.713Z,101506.47
2022-10-07T08:48:59.319Z,101507.44
2022-10-07T08:51:09.253Z,101503.22
2022-10-07T08:53:17.384Z,101497.28
2022-10-07T08:55:27.036Z,101502.94
2022-10-07T08:57:46.990Z,101493.03
2022-10-07T08:59:55.432Z,101496.25
2022-10-07T09:02:12.400Z,101496.16
2022-10-07T09:04:27.833Z,101496.94
2022-10-07T09:06:33.734Z,101493.75
2022-10-07T09:08:40.837Z,101494.63
2022-10-07T09:10:49.165Z,101492.00
2022-10-07T09:12:56.966Z,101485.47
2022-10-07T09:15:00.576Z,101480.91
2022-10-07T09:17:08.272Z,101485.25
2022-10-07T09:19:20.136Z,101488.38
2022-10-07T09:21:27.235Z,101476.03
2022-10-07T09:23:30.968Z,101475.63
2022-10-07T09:25:32.544Z,101473.25
2022-10-07T09:27:34.208Z,101466.44
2022-10-07T09:29:36.261Z,101464.44
2022-10-07T09:31:38.259Z,101477.50
2022-10-07T09:33:45.258Z,101471.88
2022-10-07T09:35:57.362Z,101466.59
2022-10-07T09:38:01.818Z,101456.03
2022-10-07T09:40:20.148Z,101455.88
2022-10-07T09:42:33.533Z,101458.81
2022-10-07T09:44:36.380Z,101462.00
2022-10-07T09:46:44.835Z,101452.88
2022-10-07T09:48:52.249Z,101453.69
2022-10-07T09:51:12.491Z,101449.50
2022-10-07T09:53:20.040Z,101445.16
2022-10-07T09:55:29.204Z,101451.28
2022-10-07T09:57:33.804Z,101451.09
2022-10-07T09:59:36.832Z,101443.38
2022-10-07T10:01:38.636Z,101447.09
2022-10-07T10:03:40.344Z,101443.09
2022-10-07T10:05:52.142Z,101439.28
2022-10-07T10:07:58.603Z,101440.75
2022-10-07T10:10:04.637Z,101432.09
2022-10-07T10:12:14.540Z,101434.84
2022-10-07T10:14:28.132Z,101439.69
2022-10-07T10:16:33.341Z,101437.44
2022-10-07T10:18:37.881Z,101429.06
2022-10-07T10:20:39.520Z,101428.31
2022-10-07T10:22:41.113Z,101425.41
2022-10-07T10:24:44.355Z,101420.59
2022-10-07T10:26:58.489Z,101417.88
2022-10-07T10:29:10.227Z,101411.59
2022-10-07T10:31:23.853Z,101411.25
2022-10-07T10:33:33.814Z,101414.03
2022-10-07T10:35:42.844Z,101405.97
2022-10-07T10:38:04.502Z,101398.22
2022-10-07T10:40:20.512Z,101395.75
2022-10-07T10:42:31.280Z,101393.47
2022-10-07T10:44:48.435Z,101382.75
2022-10-07T10:47:00.401Z,101384.16
2022-10-07T10:49:09.842Z,101376.13
2022-10-07T10:51:21.731Z,101366.06
2022-10-07T10:53:40.196Z,101368.41
2022-10-07T10:56:05.042Z,101372.06
2022-10-07T10:58:21.216Z,101369.84
2022-10-07T11:00:23.463Z,101357.53
2022-10-07T11:03:00.130Z,101355.81
2022-10-07T11:05:05.036Z,101357.94
2022-10-07T11:07:10.481Z,101353.91
2022-10-07T11:09:19.787Z,101339.19
2022-10-07T11:11:23.370Z,101346.88
2022-10-07T11:13:33.432Z,101344.06
2022-10-07T11:15:41.474Z,101341.13
2022-10-07T11:17:47.304Z,101334.81
2022-10-07T11:19:55.223Z,101332.50
2022-10-07T11:21:58.605Z,101330.34
2022-10-07T11:24:03.557Z,101327.03
2022-10-07T11:26:13.708Z,101317.16
2022-10-07T11:28:21.011Z,101314.66
2022-10-07T11:30:23.785Z,101316.38
2022-10-07T11:32:31.101Z,101309.53
2022-10-07T11:34:43.458Z,101310.38
2022-10-07T11:36:55.274Z,101299.28
2022-10-07T11:38:56.939Z,101298.00
2022-10-07T11:41:03.259Z,101294.38
2022-10-07T11:43:08.645Z,101284.03
2022-10-07T11:45:18.143Z,101279.19
2022-10-07T11:47:23.984Z,101281.59
2022-10-07T11:49:31.957Z,101284.59
2022-10-07T11:51:36.705Z,101269.97
2022-10-07T11:53:40.462Z,101281.81
2022-10-07T11:55:49.430Z,101269.47
2022-10-07T11:57:57.024Z,101272.22
2022-10-07T12:00:01.432Z,101258.28
2022-10-07T12:02:05.220Z,101254.13
2022-10-07T12:04:30.824Z,101248.94
2022-10-07T12:06:32.610Z,101247.16
2022-10-07T12:08:36.402Z,101246.94
2022-10-07T12:10:38.803Z,101243.38
2022-10-07T12:12:48.481Z,101237.84
2022-10-07T12:15:01.492Z,101233.16
2022-10-07T12:17:25.936Z,101234.16
2022-10-07T12:19:28.067Z,101224.28
2022-10-07T12:21:30.013Z,101229.97
2022-10-07T12:23:40.556Z,101221.25
2022-10-07T12:25:43.892Z,101223.84
2022-10-07T12:27:46.205Z,101213.31
2022-10-07T12:29:51.716Z,101207.28
2022-10-07T12:31:53.637Z,101203.78
2022-10-07T12:34:09.866Z,101200.78
2022-10-07T12:36:28.391Z,101196.78
2022-10-07T12:38:30.799Z,101187.31
2022-10-07T12:40:35.374Z,101187.59
2022-10-07T12:42:37.700Z,101183.09
2022-10-07T12:44:44.492Z,101179.94
2022-10-07T12:46:50.583Z,101181.53
2022-10-07T12:49:00.457Z,101174.88
2022-10-07T12:51:05.011Z,101169.97
2022-10-07T12:53:09.902Z,101165.53
2022-10-07T12:55:17.578Z,101162.94
2022-10-07T12:57:22.765Z,101166.28
2022-10-07T12:59:42.403Z,101152.34
2022-10-07T13:02:10.501Z,101152.91
2022-10-07T13:04:42.118Z,101152.09
2022-10-07T13:07:25.936Z,101152.81
2022-10-07T13:09:53.095Z,101144.03
2022-10-07T13:12:13.392Z,101140.28
2022-10-07T13:14:20.796Z,101150.72
2022-10-07T13:16:28.545Z,101145.13
2022-10-07T13:18:40.333Z,101143.63
2022-10-07T13:21:11.513Z,101136.88
2022-10-07T13:23:16.329Z,101137.56
2022-10-07T13:25:20.041Z,101129.78
2022-10-07T13:27:26.214Z,101128.50
2022-10-07T13:29:30.445Z,101118.31
2022-10-07T13:31:32.145Z,101119.69
2022-10-07T13:33:33.782Z,101116.63
2022-10-07T13:35:39.507Z,101112.88
2022-10-07T13:37:46.753Z,101108.41
2022-10-07T13:39:48.444Z,101105.66
2022-10-07T13:41:52.540Z,101102.09
2022-10-07T13:43:59.227Z,101105.22
2022-10-07T13:46:02.572Z,101091.09
2022-10-07T13:48:04.917Z,101091.94
2022-10-07T13:50:10.476Z,101087.22
2022-10-07T13:52:20.416Z,101083.72
2022-10-07T13:54:26.592Z,101085.56
2022-10-07T13:56:30.901Z,101071.47
2022-10-07T13:58:32.914Z,101063.34
2022-10-07T14:00:41.580Z,101070.16
2022-10-07T14:02:43.583Z,101069.03
2022-10-07T14:04:52.641Z,101061.03
2022-10-07T14:07:01.553Z,101064.03
2022-10-07T14:09:03.424Z,101059.56
2022-10-07T14:11:16.715Z,101056.38
2022-10-07T14:13:18.393Z,101052.94
2022-10-07T14:15:21.681Z,101046.03
2022-10-07T14:17:30.454Z,101039.88
2022-10-07T14:19:32.862Z,101034.50
2022-10-07T14:21:40.244Z,101030.97
2022-10-07T14:23:41.853Z,101030.97
2022-10-07T14:25:52.671Z,101029.03
2022-10-07T14:28:17.637Z,101021.50
2022-10-07T14:30:40.828Z,101017.16
2022-10-07T14:32:42.515Z,101013.16
2022-10-07T14:34:44.165Z,101008.09
2022-10-07T14:37:02.805Z,101007.31
2022-10-07T14:39:22.617Z,101003.31
2022-10-07T14:41:27.613Z,101005.34
2022-10-07T14:43:32.601Z,101013.59
2022-10-07T14:45:36.909Z,101006.09
2022-10-07T14:47:38.523Z,101002.22
2022-10-07T14:49:40.592Z,101000.38
2022-10-07T14:51:44.870Z,100990.41
2022-10-07T14:53:48.253Z,100990.50
2022-10-07T14:55:49.966Z,100982.53
2022-10-07T14:57:52.091Z,100984.25
2022-10-07T14:59:55.371Z,100980.50
2022-10-07T15:01:57.344Z,100981.91
2022-10-07T15:03:59.195Z,100988.53
2022-10-07T15:06:01.187Z,100992.06
2022-10-07T15:08:03.043Z,100989.09
2022-10-07T15:10:11.950Z,100986.56
2022-10-07T15:12:16.660Z,100983.38
2022-10-07T15:14:18.324Z,100970.91
2022-10-07T15:16:23.834Z,100969.31
2022-10-07T15:18:25.659Z,100961.97
2022-10-07T15:20:27.411Z,100958.06
2022-10-07T15:22:32.103Z,100955.72
2022-10-07T15:24:33.758Z,100960.16
2022-10-07T15:26:35.284Z,100958.81
2022-10-07T15:28:36.918Z,100963.25
2022-10-07T15:30:39.630Z,100962.81
2022-10-07T15:32:43.093Z,100966.00
2022-10-07T15:34:44.892Z,100961.88
2022-10-07T15:36:46.474Z,100962.00
2022-10-07T15:38:48.294Z,100958.00
2022-10-07T15:40:52.904Z,100951.13
2022-10-07T15:42:54.475Z,100954.56
2022-10-07T15:44:56.109Z,100950.69
2022-10-07T15:46:57.662Z,100948.28
2022-10-07T15:49:00.646Z,100956.16
2022-10-07T15:51:02.326Z,100942.09
2022-10-07T15:53:04.024Z,100940.94
2022-10-07T15:55:07.740Z,100938.56
2022-10-07T15:57:09.525Z,100943.22
2022-10-07T15:59:11.118Z,100939.94
2022-10-07T16:01:12.712Z,100940.25
2022-10-07T16:03:14.401Z,100935.25
2022-10-07T16:05:17.693Z,100944.63
2022-10-07T16:07:19.494Z,100939.59
2022-10-07T16:09:22.447Z,100943.94
2022-10-07T16:11:25.147Z,100945.28
2022-10-07T16:13:26.716Z,100939.34
2022-10-07T16:15:28.683Z,100940.47
2022-10-07T16:17:30.427Z,100930.31
2022-10-07T16:19:31.967Z,100927.56
2022-10-07T16:21:36.706Z,100940.06
2022-10-07T16:23:40.787Z,100942.56
2022-10-07T16:25:42.394Z,100946.00
2022-10-07T16:27:44.418Z,100942.09
2022-10-07T16:29:46.149Z,100933.44
2022-10-07T16:31:48.814Z,100932.88
2022-10-07T16:33:51.029Z,100931.59
2022-10-07T16:35:52.549Z,100924.06
2022-10-07T16:37:56.120Z,100933.44
2022-10-07T16:39:58.042Z,100936.84
2022-10-07T16:41:59.799Z,100943.47
2022-10-07T16:44:02.431Z,100941.88
2022-10-07T16:46:05.613Z,100932.63
2022-10-07T16:48:07.284Z,100944.63
2022-10-07T16:50:11.119Z,100939.13
2022-10-07T16:52:12.889Z,100934.78
2022-10-07T16:54:20.423Z,100932.75
2022-10-07T16:56:22.932Z,100930.34
2022-10-07T16:58:24.598Z,100923.59
2022-10-07T17:00:26.167Z,100926.34
2022-10-07T17:02:27.836Z,100926.34
2022-10-07T17:04:32.336Z,100922.00
2022-10-07T17:06:34.633Z,100921.53
2022-10-07T17:08:42.795Z,100926.56
2022-10-07T17:10:48.160Z,100928.03
2022-10-07T17:12:50.131Z,100925.31
2022-10-07T17:14:52.078Z,100925.97
2022-10-07T17:16:56.698Z,100931.03
2022-10-07T17:18:58.623Z,100932.50
2022-10-07T17:21:00.443Z,100927.00
2022-10-07T17:23:02.476Z,100932.03
2022-10-07T17:25:04.550Z,100931.59
2022-10-07T17:27:07.422Z,100929.69
2022-10-07T17:29:10.641Z,100929.38
2022-10-07T17:31:13.379Z,100921.47
2022-10-07T17:33:15.486Z,100924.22
2022-10-07T17:35:17.198Z,100919.56
2022-10-07T17:37:18.966Z,100921.03
2022-10-07T17:39:20.979Z,100927.50
2022-10-07T17:41:27.552Z,100937.56
2022-10-07T17:43:30.846Z,100943.50
2022-10-07T17:45:34.685Z,100935.16
2022-10-07T17:47:36.304Z,100926.50
2022-10-07T17:49:37.802Z,100920.19
2022-10-07T17:51:39.461Z,100927.63
2022-10-07T17:53:41.634Z,100928.28
2022-10-07T17:55:50.554Z,100921.69
2022-10-07T17:57:52.119Z,100918.34
2022-10-07T17:59:55.253Z,100922.59
2022-10-07T18:01:56.854Z,100930.22
2022-10-07T18:04:01.559Z,100928.94
2022-10-07T18:06:05.438Z,100921.06
2022-10-07T18:08:07.023Z,100927.19
2022-10-07T18:10:08.927Z,100919.34
2022-10-07T18:12:10.731Z,100915.47
2022-10-07T18:14:12.855Z,100921.25
2022-10-07T18:16:16.314Z,100916.91
2022-10-07T18:18:17.953Z,100908.81
2022-10-07T18:20:20.480Z,100906.53
2022-10-07T18:22:22.091Z,100913.59
2022-10-07T18:24:24.433Z,100911.53
2022-10-07T18:26:26.128Z,100913.47
2022-10-07T18:28:28.599Z,100907.88
2022-10-07T18:30:30.646Z,100909.00
2022-10-07T18:32:34.334Z,100904.66
2022-10-07T18:34:36.271Z,100897.94
2022-10-07T18:36:38.047Z,100895.53
2022-10-07T18:38:41.413Z,100900.19
2022-10-07T18:40:43.673Z,100892.31
2022-10-07T18:42:45.315Z,100895.72
2022-10-07T18:44:47.274Z,100902.22
2022-10-07T18:46:49.064Z,100908.81
2022-10-07T18:48:52.200Z,100914.50
2022-10-07T18:50:53.837Z,100907.06
2022-10-07T18:52:55.782Z,100902.25
2022-10-07T18:54:57.448Z,100903.38
2022-10-07T18:56:59.378Z,100901.47
2022-10-07T18:59:00.936Z,100903.84
2022-10-07T19:01:06.619Z,100909.03
2022-10-07T19:03:09.163Z,100906.94
2022-10-07T19:05:12.464Z,100904.41
2022-10-07T19:07:14.228Z,100901.06
2022-10-07T19:09:18.440Z,100897.06
2022-10-07T19:11:20.206Z,100895.94
2022-10-07T19:13:21.833Z,100884.84
2022-10-07T19:15:23.592Z,100899.84
2022-10-07T19:17:25.430Z,100895.53
2022-10-07T19:19:27.110Z,100897.22
2022-10-07T19:21:30.880Z,100894.00
2022-10-07T19:23:32.480Z,100901.72
2022-10-07T19:25:34.131Z,100895.78
2022-10-07T19:27:36.440Z,100898.88
2022-10-07T19:29:38.074Z,100891.31
2022-10-07T19:31:41.365Z,100888.59
2022-10-07T19:33:43.681Z,100893.59
2022-10-07T19:35:45.647Z,100897.66
2022-10-07T19:37:48.919Z,100898.44
2022-10-07T19:39:51.285Z,100893.44
2022-10-07T19:41:52.930Z,100901.31
2022-10-07T19:43:55.263Z,100893.44
2022-10-07T19:45:59.766Z,100892.50
2022-10-07T19:48:02.049Z,100881.91
2022-10-07T19:50:03.919Z,100882.56
2022-10-07T19:52:05.523Z,100887.25
2022-10-07T19:54:08.836Z,100891.22
2022-10-07T19:56:16.211Z,100888.84
2022-10-07T19:58:18.107Z,100886.41
2022-10-07T20:00:19.872Z,100887.25
2022-10-07T20:02:21.587Z,100878.09
2022-10-07T20:04:23.161Z,100881.28
2022-10-07T20:06:25.092Z,100877.94
2022-10-07T20:08:28.005Z,100880.88
2022-10-07T20:10:31.242Z,100874.94
2022-10-07T20:12:32.845Z,100877.34
2022-10-07T20:14:34.807Z,100874.94
2022-10-07T20:18:39.106Z,100874.47
2022-10-07T20:20:43.579Z,100873.19
2022-10-07T20:22:49.240Z,100874.47
2022-10-07T20:24:51.102Z,100869.00
2022-10-07T20:26:54.635Z,100870.59
2022-10-07T20:28:59.145Z,100866.75
2022-10-07T20:31:05.636Z,100868.66
2022-10-07T20:33:07.189Z,100869.47
2022-10-07T20:35:09.011Z,100863.06
2022-10-07T20:37:13.614Z,100868.88
2022-10-07T20:39:16.898Z,100873.69
2022-10-07T20:41:18.776Z,100877.22
2022-10-07T20:43:22.068Z,100867.28
2022-10-07T20:45:23.741Z,100864.19
2022-10-07T20:47:26.717Z,100876.44
2022-10-07T20:49:28.407Z,100867.41
2022-10-07T20:51:29.970Z,100867.75
2022-10-07T20:53:31.709Z,100874.34
2022-10-07T20:55:36.428Z,100873.53
2022-10-07T20:57:38.128Z,100871.13
2022-10-07T20:59:41.085Z,100877.72
2022-10-07T21:01:42.855Z,100878.06
2022-10-07T21:03:44.459Z,100879.19
2022-10-07T21:05:48.037Z,100875.66
2022-10-07T21:07:54.396Z,100872.91
2022-10-07T21:09:56.495Z,100876.00
2022-10-07T21:11:58.146Z,100873.59
2022-10-07T21:13:59.756Z,100875.84
2022-10-07T21:16:11.458Z,100869.91
2022-10-07T21:18:13.053Z,100867.97
2022-10-07T21:20:14.697Z,100865.56
2022-10-07T21:22:16.263Z,100870.25
2022-10-07T21:24:18.024Z,100865.56
2022-10-07T21:26:20.382Z,100864.63
2022-10-07T21:28:22.001Z,100855.63
2022-10-07T21:30:23.630Z,100859.16
2022-10-07T21:32:26.641Z,100861.09
2022-10-07T21:34:28.300Z,100858.34
2022-10-07T21:36:29.839Z,100862.22
2022-10-07T21:38:31.645Z,100856.97
2022-10-07T21:40:33.394Z,100860.47
2022-10-07T21:42:35.100Z,100850.19
2022-10-07T21:44:36.610Z,100850.19
2022-10-07T21:46:39.183Z,100851.00
2022-10-07T21:48:42.205Z,100861.13
2022-10-07T21:50:43.695Z,100855.19
2022-10-07T21:52:48.479Z,100852.44
2022-10-07T21:54:50.553Z,100846.84
2022-10-07T21:56:52.058Z,100845.25
2022-10-07T21:58:55.549Z,100845.72
2022-10-07T22:00:57.402Z,100847.31
2022-10-07T22:02:59.059Z,100849.25
2022-10-07T22:05:02.058Z,100851.66
2022-10-07T22:07:03.628Z,100849.56
2022-10-07T22:09:05.361Z,100852.66
2022-10-07T22:11:09.233Z,100860.84
2022-10-07T22:13:10.812Z,100858.75
2022-10-07T22:15:12.487Z,100860.38
2022-10-07T22:17:14.214Z,100857.00
2022-10-07T22:19:16.382Z,100854.41
2022-10-07T22:21:20.858Z,100855.53
2022-10-07T22:23:22.600Z,100857.63
2022-10-07T22:25:24.145Z,100849.59
2022-10-07T22:27:25.644Z,100851.22
2022-10-07T22:29:27.369Z,100843.97
2022-10-07T22:31:29.096Z,100840.59
2022-10-07T22:33:30.923Z,100841.72
2022-10-07T22:35:32.528Z,100849.09
2022-10-07T22:37:36.035Z,100840.13
2022-10-07T22:39:37.526Z,100842.97
2022-10-07T22:41:39.226Z,100842.97
2022-10-07T22:43:42.205Z,100838.34
2022-10-07T22:45:43.845Z,100840.59
2022-10-07T22:47:45.596Z,100845.09
2022-10-07T22:49:47.175Z,100840.59
2022-10-07T22:51:48.779Z,100836.72
2022-10-07T22:53:53.992Z,100834.31
2022-10-07T22:55:55.791Z,100833.53
2022-10-07T22:57:57.655Z,100834.66
2022-10-07T22:59:59.617Z,100828.84
2022-10-07T23:02:01.453Z,100827.41
2022-10-07T23:04:04.064Z,100827.72
2022-10-07T23:06:06.516Z,100829.66
2022-10-07T23:08:08.154Z,100828.53
2022-10-07T23:10:11.247Z,100823.72
2022-10-07T23:12:12.887Z,100822.47
2022-10-07T23:14:14.424Z,100821.78
2022-10-07T23:16:17.887Z,100817.91
2022-10-07T23:18:19.489Z,100806.34
2022-10-07T23:20:21.154Z,100811.00
2022-10-07T23:22:22.786Z,100809.72
2022-10-07T23:24:24.369Z,100811.81
2022-10-07T23:26:31.220Z,100813.75
2022-10-07T23:28:33.953Z,100815.66
2022-10-07T23:30:36.845Z,100816.00
2022-10-07T23:32:38.367Z,100813.91
2022-10-07T23:34:39.894Z,100810.41
2022-10-07T23:36:41.659Z,100813.13
2022-10-07T23:38:43.623Z,100809.44
2022-10-07T23:40:45.219Z,100801.72
2022-10-07T23:42:50.689Z,100799.78